createdAt,value
2023-05-19T00:01:16.745Z,11.45
2023-05-19T00:03:52.491Z,11.45
2023-05-19T00:06:22.927Z,11.45
2023-05-19T00:08:50.852Z,11.45
2023-05-19T00:11:18.056Z,11.42
2023-05-19T00:13:49.598Z,11.38
2023-05-19T00:16:17.325Z,11.36
2023-05-19T00:18:44.123Z,11.34
2023-05-19T00:21:10.951Z,11.32
2023-05-19T00:23:37.687Z,11.33
2023-05-19T00:26:04.511Z,11.33
2023-05-19T00:28:31.337Z,11.29
2023-05-19T00:30:59.424Z,11.26
2023-05-19T00:33:26.296Z,11.26
2023-05-19T00:35:53.045Z,11.26
2023-05-19T00:38:19.670Z,11.24
2023-05-19T00:40:46.452Z,11.20
2023-05-19T00:43:13.471Z,11.17
2023-05-19T00:45:40.739Z,11.13
2023-05-19T00:48:08.819Z,11.13
2023-05-19T00:50:35.655Z,11.13
2023-05-19T00:53:02.514Z,11.12
2023-05-19T00:55:31.788Z,11.12
2023-05-19T00:57:58.798Z,11.08
2023-05-19T01:00:25.585Z,11.04
2023-05-19T01:02:52.450Z,11.04
2023-05-19T01:05:20.980Z,11.03
2023-05-19T01:07:51.883Z,10.99
2023-05-19T01:10:18.937Z,10.98
2023-05-19T01:12:46.248Z,10.98
2023-05-19T01:15:13.950Z,10.97
2023-05-19T01:17:49.568Z,10.94
2023-05-19T01:20:20.204Z,10.93
2023-05-19T01:23:15.080Z,10.91
2023-05-19T01:26:19.364Z,10.88
2023-05-19T01:29:21.121Z,10.86
2023-05-19T01:31:50.528Z,10.87
2023-05-19T01:34:19.330Z,10.82
2023-05-19T01:36:49.818Z,10.80
2023-05-19T01:39:17.283Z,10.77
2023-05-19T01:41:45.854Z,10.77
2023-05-19T01:44:13.141Z,10.77
2023-05-19T01:46:41.981Z,10.77
2023-05-19T01:49:10.640Z,10.75
2023-05-19T01:51:37.510Z,10.74
2023-05-19T01:54:04.184Z,10.74
2023-05-19T01:56:38.326Z,10.73
2023-05-19T01:59:23.896Z,10.73
2023-05-19T02:01:53.617Z,10.72
2023-05-19T02:04:32.465Z,10.73
2023-05-19T02:07:09.001Z,10.75
2023-05-19T02:09:41.121Z,10.78
2023-05-19T02:12:15.044Z,10.75
2023-05-19T02:14:49.067Z,10.75
2023-05-19T02:17:17.923Z,10.75
2023-05-19T02:19:47.160Z,10.74
2023-05-19T02:22:13.988Z,10.73
2023-05-19T02:24:41.482Z,10.69
2023-05-19T02:27:08.210Z,10.70
2023-05-19T02:29:34.890Z,10.68
2023-05-19T02:32:02.117Z,10.68
2023-05-19T02:34:28.880Z,10.69
2023-05-19T02:36:57.060Z,10.71
2023-05-19T02:39:23.829Z,10.70
2023-05-19T02:41:50.585Z,10.68
2023-05-19T02:44:17.319Z,10.64
2023-05-19T02:46:44.181Z,10.58
2023-05-19T02:49:11.386Z,10.52
2023-05-19T02:51:38.123Z,10.48
2023-05-19T02:54:06.371Z,10.47
2023-05-19T02:56:33.177Z,10.43
2023-05-19T02:58:59.963Z,10.42
2023-05-19T03:01:26.649Z,10.36
2023-05-19T03:03:54.613Z,10.32
2023-05-19T03:06:23.617Z,10.31
2023-05-19T03:08:51.646Z,10.28
2023-05-19T03:11:19.756Z,10.28
2023-05-19T03:13:46.578Z,10.26
2023-05-19T03:16:14.082Z,10.27
2023-05-19T03:18:41.765Z,10.26
2023-05-19T03:21:08.573Z,10.28
2023-05-19T03:23:35.779Z,10.28
2023-05-19T03:26:03.121Z,10.28
2023-05-19T03:28:31.241Z,10.26
2023-05-19T03:30:58.082Z,10.25
2023-05-19T03:33:25.238Z,10.25
2023-05-19T03:35:53.063Z,10.26
2023-05-19T03:38:21.183Z,10.23
2023-05-19T03:40:48.209Z,10.24
2023-05-19T03:43:16.168Z,10.23
2023-05-19T03:45:44.354Z,10.21
2023-05-19T03:48:11.121Z,10.21
2023-05-19T03:50:38.174Z,10.18
2023-05-19T03:53:04.980Z,10.19
2023-05-19T03:55:31.823Z,10.21
2023-05-19T03:57:58.547Z,10.22
2023-05-19T04:00:25.334Z,10.24
2023-05-19T04:02:53.655Z,10.24
2023-05-19T04:05:20.587Z,10.23
2023-05-19T04:07:47.513Z,10.23
2023-05-19T04:10:14.597Z,10.23
2023-05-19T04:12:41.337Z,10.23
2023-05-19T04:15:11.487Z,10.25
2023-05-19T04:17:38.567Z,10.27
2023-05-19T04:20:07.776Z,10.30
2023-05-19T04:22:34.460Z,10.31
2023-05-19T04:25:01.764Z,10.33
2023-05-19T04:27:30.005Z,10.34
2023-05-19T04:29:58.116Z,10.36
2023-05-19T04:32:25.706Z,10.35
2023-05-19T04:34:52.870Z,10.36
2023-05-19T04:37:21.100Z,10.36
2023-05-19T04:39:48.428Z,10.37
2023-05-19T04:42:19.161Z,10.38
2023-05-19T04:44:46.000Z,10.40
2023-05-19T04:47:13.360Z,10.43
2023-05-19T04:49:40.132Z,10.43
2023-05-19T04:52:07.616Z,10.44
2023-05-19T04:54:36.171Z,10.43
2023-05-19T04:57:02.946Z,10.46
2023-05-19T04:59:29.895Z,10.49
2023-05-19T05:01:56.757Z,10.51
2023-05-19T05:04:23.924Z,10.53
2023-05-19T05:06:50.814Z,10.56
2023-05-19T05:09:19.079Z,10.57
2023-05-19T05:11:47.818Z,10.60
2023-05-19T05:14:16.635Z,10.62
2023-05-19T05:16:44.111Z,10.64
2023-05-19T05:19:11.563Z,10.64
2023-05-19T05:21:38.772Z,10.66
2023-05-19T05:24:06.397Z,10.67
2023-05-19T05:26:33.938Z,10.71
2023-05-19T05:29:02.064Z,10.72
2023-05-19T05:31:28.926Z,10.75
2023-05-19T05:33:56.572Z,10.77
2023-05-19T05:36:23.228Z,10.80
2023-05-19T05:38:50.147Z,10.85
2023-05-19T05:41:16.876Z,10.87
2023-05-19T05:43:43.577Z,10.88
2023-05-19T05:46:11.732Z,10.91
2023-05-19T05:48:38.974Z,10.93
2023-05-19T05:51:06.578Z,10.98
2023-05-19T05:53:37.059Z,10.98
2023-05-19T05:56:05.732Z,11.01
2023-05-19T05:58:33.066Z,11.04
2023-05-19T06:01:00.309Z,11.08
2023-05-19T06:03:28.602Z,11.12
2023-05-19T06:05:55.492Z,11.14
2023-05-19T06:08:22.340Z,11.18
2023-05-19T06:10:49.129Z,11.22
2023-05-19T06:13:18.800Z,11.25
2023-05-19T06:15:45.619Z,11.28
2023-05-19T06:18:12.433Z,11.32
2023-05-19T06:20:40.867Z,11.33
2023-05-19T06:23:08.472Z,11.37
2023-05-19T06:25:35.311Z,11.38
2023-05-19T06:28:02.222Z,11.41
2023-05-19T06:30:29.065Z,11.43
2023-05-19T06:32:56.714Z,11.46
2023-05-19T06:35:23.585Z,11.50
2023-05-19T06:37:53.102Z,11.55
2023-05-19T06:40:19.787Z,11.62
2023-05-19T06:42:46.663Z,11.66
2023-05-19T06:45:13.396Z,11.74
2023-05-19T06:47:44.476Z,11.80
2023-05-19T06:50:11.319Z,11.88
2023-05-19T06:52:38.057Z,11.93
2023-05-19T06:55:07.212Z,11.97
2023-05-19T06:57:33.908Z,12.02
2023-05-19T07:00:00.879Z,12.04
2023-05-19T07:02:27.827Z,12.11
2023-05-19T07:04:54.761Z,12.15
2023-05-19T07:07:21.588Z,12.19
2023-05-19T07:09:48.418Z,12.23
2023-05-19T07:12:16.625Z,12.28
2023-05-19T07:14:43.628Z,12.31
2023-05-19T07:17:10.435Z,12.33
2023-05-19T07:19:37.241Z,12.36
2023-05-19T07:22:04.376Z,12.40
2023-05-19T07:24:31.616Z,12.40
2023-05-19T07:26:58.648Z,12.45
2023-05-19T07:29:27.211Z,12.48
2023-05-19T07:31:57.826Z,12.51
2023-05-19T07:34:25.094Z,12.55
2023-05-19T07:36:52.148Z,12.60
2023-05-19T07:39:19.449Z,12.64
2023-05-19T07:41:52.695Z,12.70
2023-05-19T07:44:19.536Z,12.74
2023-05-19T07:46:47.785Z,12.81
2023-05-19T07:49:14.521Z,12.86
2023-05-19T07:51:42.182Z,12.93
2023-05-19T07:54:08.984Z,13.00
2023-05-19T07:56:36.009Z,13.05
2023-05-19T07:59:04.016Z,13.11
2023-05-19T08:01:31.063Z,13.18
2023-05-19T08:03:59.458Z,13.23
2023-05-19T08:06:26.388Z,13.31
2023-05-19T08:08:54.289Z,13.40
2023-05-19T08:11:21.594Z,13.47
2023-05-19T08:13:49.354Z,13.53
2023-05-19T08:16:16.281Z,13.57
2023-05-19T08:18:43.356Z,13.63
2023-05-19T08:21:11.799Z,13.71
2023-05-19T08:23:38.946Z,13.80
2023-05-19T08:26:05.801Z,13.90
2023-05-19T08:28:32.612Z,14.00
2023-05-19T08:30:59.421Z,14.12
2023-05-19T08:33:26.225Z,14.27
2023-05-19T08:35:55.388Z,14.40
2023-05-19T08:38:23.753Z,14.54
2023-05-19T08:40:50.596Z,14.62
2023-05-19T08:43:17.781Z,14.71
2023-05-19T08:45:48.488Z,14.79
2023-05-19T08:48:17.420Z,14.87
2023-05-19T08:50:53.036Z,14.98
2023-05-19T08:53:33.111Z,15.10
2023-05-19T08:56:11.330Z,15.18
2023-05-19T08:58:40.270Z,15.27
2023-05-19T09:01:07.997Z,15.38
2023-05-19T09:03:39.283Z,15.47
2023-05-19T09:06:08.639Z,15.57
2023-05-19T09:08:36.603Z,15.66
2023-05-19T09:11:04.940Z,15.75
2023-05-19T09:13:31.667Z,15.81
2023-05-19T09:15:58.714Z,15.87
2023-05-19T09:18:26.736Z,15.93
2023-05-19T09:21:00.262Z,16.00
2023-05-19T09:23:32.785Z,16.05
2023-05-19T09:26:03.934Z,16.12
2023-05-19T09:28:33.537Z,16.18
2023-05-19T09:31:01.449Z,16.22
2023-05-19T09:33:28.667Z,16.27
2023-05-19T09:35:58.805Z,16.31
2023-05-19T09:38:26.099Z,16.35
2023-05-19T09:40:53.403Z,16.42
2023-05-19T09:43:21.663Z,16.47
2023-05-19T09:45:55.516Z,16.51
2023-05-19T09:48:22.299Z,16.58
2023-05-19T09:50:51.666Z,16.65
2023-05-19T09:53:18.682Z,16.70
2023-05-19T09:55:45.808Z,16.74
2023-05-19T09:58:16.709Z,16.78
2023-05-19T10:00:43.788Z,16.82
2023-05-19T10:03:13.027Z,16.86
2023-05-19T10:05:41.755Z,16.91
2023-05-19T10:08:10.583Z,16.95
2023-05-19T10:10:38.190Z,17.01
2023-05-19T10:13:06.552Z,17.07
2023-05-19T10:15:46.707Z,17.11
2023-05-19T10:18:26.822Z,17.17
2023-05-19T10:20:54.823Z,17.19
2023-05-19T10:23:22.659Z,17.24
2023-05-19T10:25:53.039Z,17.29
2023-05-19T10:28:23.642Z,17.31
2023-05-19T10:30:54.648Z,17.32
2023-05-19T10:33:37.292Z,17.33
2023-05-19T10:36:31.196Z,17.32
2023-05-19T10:39:02.697Z,17.31
2023-05-19T10:41:40.177Z,17.30
2023-05-19T10:44:16.386Z,17.31
2023-05-19T10:46:47.006Z,17.32
2023-05-19T10:49:22.638Z,17.34
2023-05-19T10:51:50.129Z,17.36
2023-05-19T10:54:18.540Z,17.39
2023-05-19T10:56:48.042Z,17.42
2023-05-19T10:59:32.538Z,17.49
2023-05-19T11:02:04.240Z,17.55
2023-05-19T11:04:50.933Z,17.59
2023-05-19T11:07:22.495Z,17.62
2023-05-19T11:09:52.224Z,17.65
2023-05-19T11:12:24.771Z,17.73
2023-05-19T11:14:55.121Z,17.78
2023-05-19T11:17:23.716Z,17.85
2023-05-19T11:19:57.143Z,17.91
2023-05-19T11:22:26.084Z,17.95
2023-05-19T11:24:55.976Z,18.02
2023-05-19T11:27:28.206Z,18.09
2023-05-19T11:29:57.220Z,18.14
2023-05-19T11:32:28.080Z,18.15
2023-05-19T11:34:57.908Z,18.20
2023-05-19T11:37:24.922Z,18.26
2023-05-19T11:39:52.971Z,18.31
2023-05-19T11:42:20.224Z,18.36
2023-05-19T11:44:47.110Z,18.39
2023-05-19T11:47:14.704Z,18.44
2023-05-19T11:49:44.241Z,18.50
2023-05-19T11:52:12.851Z,18.54
2023-05-19T11:54:41.917Z,18.59
2023-05-19T11:57:09.722Z,18.65
2023-05-19T11:59:39.296Z,18.71
2023-05-19T12:02:17.314Z,18.76
2023-05-19T12:04:44.211Z,18.81
2023-05-19T12:07:13.747Z,18.85
2023-05-19T12:09:40.660Z,18.87
2023-05-19T12:12:08.012Z,18.93
2023-05-19T12:14:35.990Z,18.98
2023-05-19T12:17:11.812Z,19.05
2023-05-19T12:19:39.045Z,19.10
2023-05-19T12:22:07.507Z,19.11
2023-05-19T12:24:36.483Z,19.15
2023-05-19T12:27:10.232Z,19.21
2023-05-19T12:29:40.956Z,19.26
2023-05-19T12:32:09.144Z,19.30
2023-05-19T12:34:37.383Z,19.33
2023-05-19T12:37:04.632Z,19.32
2023-05-19T12:39:31.564Z,19.37
2023-05-19T12:42:03.507Z,19.40
2023-05-19T12:44:31.458Z,19.46
2023-05-19T12:46:59.595Z,19.52
2023-05-19T12:49:26.542Z,19.55
2023-05-19T12:51:53.541Z,19.55
2023-05-19T12:54:21.137Z,19.59
2023-05-19T12:56:52.061Z,19.63
2023-05-19T12:59:54.920Z,19.68
2023-05-19T13:02:12.182Z,19.75
2023-05-19T13:04:39.054Z,19.81
2023-05-19T13:07:06.087Z,19.89
2023-05-19T13:09:35.251Z,19.96
2023-05-19T13:12:02.218Z,20.00
2023-05-19T13:14:30.419Z,20.03
2023-05-19T13:16:57.222Z,20.05
2023-05-19T13:19:25.701Z,20.10
2023-05-19T13:21:53.000Z,20.14
2023-05-19T13:24:19.804Z,20.13
2023-05-19T13:26:48.119Z,20.15
2023-05-19T13:29:15.184Z,20.14
2023-05-19T13:31:45.413Z,20.19
2023-05-19T13:34:12.136Z,20.27
2023-05-19T13:36:39.310Z,20.35
2023-05-19T13:39:06.074Z,20.42
2023-05-19T13:41:41.918Z,20.45
2023-05-19T13:44:08.753Z,20.45
2023-05-19T13:46:44.671Z,20.41
2023-05-19T13:49:13.487Z,20.37
2023-05-19T13:51:45.945Z,20.38
2023-05-19T13:54:12.829Z,20.40
2023-05-19T13:56:39.650Z,20.41
2023-05-19T13:59:06.786Z,20.45
2023-05-19T14:01:33.990Z,20.47
2023-05-19T14:04:01.280Z,20.50
2023-05-19T14:06:29.582Z,20.54
2023-05-19T14:08:56.462Z,20.59
2023-05-19T14:11:23.181Z,20.61
2023-05-19T14:13:52.558Z,20.60
2023-05-19T14:16:21.971Z,20.59
2023-05-19T14:18:49.062Z,20.60
2023-05-19T14:21:15.977Z,20.63
2023-05-19T14:23:44.490Z,20.64
2023-05-19T14:26:12.653Z,20.67
2023-05-19T14:28:39.789Z,20.74
2023-05-19T14:31:11.468Z,20.75
2023-05-19T14:33:39.639Z,20.75
2023-05-19T14:36:07.448Z,20.77
2023-05-19T14:38:34.437Z,20.80
2023-05-19T14:41:03.076Z,20.80
2023-05-19T14:43:30.040Z,20.78
2023-05-19T14:45:57.037Z,20.79
2023-05-19T14:48:24.032Z,20.83
2023-05-19T14:50:50.974Z,20.83
2023-05-19T14:53:17.745Z,20.85
2023-05-19T14:55:44.630Z,20.82
2023-05-19T14:58:27.385Z,20.82
2023-05-19T15:00:57.693Z,20.86
2023-05-19T15:03:24.982Z,20.87
2023-05-19T15:05:51.852Z,20.91
2023-05-19T15:08:18.787Z,20.91
2023-05-19T15:10:48.798Z,20.90
2023-05-19T15:13:19.047Z,20.90
2023-05-19T15:15:46.149Z,20.88
2023-05-19T15:18:13.357Z,20.87
2023-05-19T15:20:40.544Z,20.92
2023-05-19T15:23:07.311Z,20.90
2023-05-19T15:25:34.168Z,20.89
2023-05-19T15:28:01.890Z,20.89
2023-05-19T15:30:30.045Z,20.91
2023-05-19T15:32:56.824Z,20.90
2023-05-19T15:35:23.869Z,20.89
2023-05-19T15:37:50.998Z,20.90
2023-05-19T15:40:18.102Z,20.89
2023-05-19T15:42:44.979Z,20.87
2023-05-19T15:45:11.866Z,20.89
2023-05-19T15:47:39.992Z,20.89
2023-05-19T15:50:08.156Z,20.89
2023-05-19T15:52:35.022Z,20.87
2023-05-19T15:55:04.305Z,20.87
2023-05-19T15:57:32.402Z,20.88
2023-05-19T15:59:59.213Z,20.88
2023-05-19T16:02:26.370Z,20.87
2023-05-19T16:04:56.217Z,20.89
2023-05-19T16:07:23.865Z,20.90
2023-05-19T16:09:50.711Z,20.90
2023-05-19T16:12:17.678Z,20.89
2023-05-19T16:14:44.508Z,20.86
2023-05-19T16:17:14.042Z,20.85
2023-05-19T16:19:40.893Z,20.81
2023-05-19T16:22:09.146Z,20.78
2023-05-19T16:24:35.947Z,20.76
2023-05-19T16:27:02.805Z,20.75
2023-05-19T16:29:29.547Z,20.71
2023-05-19T16:31:56.305Z,20.71
2023-05-19T16:34:23.143Z,20.74
2023-05-19T16:36:50.148Z,20.74
2023-05-19T16:39:18.464Z,20.73
2023-05-19T16:41:45.289Z,20.73
2023-05-19T16:44:14.372Z,20.70
2023-05-19T16:46:41.258Z,20.67
2023-05-19T16:49:08.033Z,20.63
2023-05-19T16:51:34.809Z,20.56
2023-05-19T16:54:01.763Z,20.49
2023-05-19T16:56:29.961Z,20.39
2023-05-19T16:58:56.777Z,20.36
2023-05-19T17:01:23.687Z,20.35
2023-05-19T17:03:50.606Z,20.33
2023-05-19T17:06:17.579Z,20.30
2023-05-19T17:08:44.606Z,20.28
2023-05-19T17:11:11.466Z,20.27
2023-05-19T17:13:39.717Z,20.24
2023-05-19T17:16:07.340Z,20.22
2023-05-19T17:18:34.050Z,20.17
2023-05-19T17:21:03.921Z,20.10
2023-05-19T17:23:31.662Z,20.06
2023-05-19T17:25:58.615Z,20.01
2023-05-19T17:28:25.547Z,19.97
2023-05-19T17:30:53.719Z,19.92
2023-05-19T17:33:20.892Z,19.88
2023-05-19T17:35:47.824Z,19.83
2023-05-19T17:38:14.601Z,19.75
2023-05-19T17:40:42.177Z,19.71
2023-05-19T17:43:09.184Z,19.65
2023-05-19T17:45:37.383Z,19.58
2023-05-19T17:48:06.954Z,19.49
2023-05-19T17:50:34.228Z,19.43
2023-05-19T17:53:01.775Z,19.39
2023-05-19T17:55:31.048Z,19.36
2023-05-19T17:57:58.352Z,19.32
2023-05-19T18:00:26.255Z,19.27
2023-05-19T18:02:53.947Z,19.23
2023-05-19T18:05:23.226Z,19.20
2023-05-19T18:07:50.485Z,19.15
2023-05-19T18:10:18.026Z,19.13
2023-05-19T18:12:44.916Z,19.08
2023-05-19T18:15:12.207Z,19.05
2023-05-19T18:17:39.039Z,19.01
2023-05-19T18:20:07.789Z,18.96
2023-05-19T18:22:36.077Z,18.92
2023-05-19T18:25:02.810Z,18.87
2023-05-19T18:27:30.033Z,18.82
2023-05-19T18:29:56.820Z,18.76
2023-05-19T18:32:23.631Z,18.72
2023-05-19T18:34:52.108Z,18.69
2023-05-19T18:37:18.929Z,18.66
2023-05-19T18:39:47.093Z,18.63
2023-05-19T18:42:13.733Z,18.61
2023-05-19T18:44:42.237Z,18.57
2023-05-19T18:47:09.130Z,18.51
2023-05-19T18:49:35.902Z,18.47
2023-05-19T18:52:02.650Z,18.44
2023-05-19T18:54:29.430Z,18.39
2023-05-19T18:56:57.547Z,18.36
2023-05-19T18:59:25.873Z,18.33
2023-05-19T19:01:53.249Z,18.29
2023-05-19T19:04:20.599Z,18.25
2023-05-19T19:06:48.445Z,18.20
2023-05-19T19:09:15.546Z,18.18
2023-05-19T19:11:42.430Z,18.15
2023-05-19T19:14:10.918Z,18.09
2023-05-19T19:16:37.856Z,18.03
2023-05-19T19:19:04.792Z,18.00
2023-05-19T19:21:32.083Z,17.96
2023-05-19T19:23:59.046Z,17.90
2023-05-19T19:26:31.893Z,17.83
2023-05-19T19:28:58.936Z,17.79
2023-05-19T19:31:28.857Z,17.76
2023-05-19T19:34:02.997Z,17.72
2023-05-19T19:36:30.410Z,17.68
2023-05-19T19:38:57.277Z,17.64
2023-05-19T19:41:25.406Z,17.59
2023-05-19T19:43:53.138Z,17.52
2023-05-19T19:46:20.319Z,17.48
2023-05-19T19:48:48.677Z,17.45
2023-05-19T19:51:15.716Z,17.41
2023-05-19T19:53:42.761Z,17.34
2023-05-19T19:56:09.829Z,17.30
2023-05-19T19:58:37.089Z,17.27
2023-05-19T20:01:04.438Z,17.25
2023-05-19T20:03:33.405Z,17.22
2023-05-19T20:06:03.734Z,17.18
2023-05-19T20:08:30.779Z,17.12
2023-05-19T20:10:57.676Z,17.09
2023-05-19T20:13:24.481Z,17.07
2023-05-19T20:15:51.628Z,17.00
2023-05-19T20:18:18.479Z,16.96
2023-05-19T20:20:45.608Z,16.92
2023-05-19T20:23:16.220Z,16.89
2023-05-19T20:25:58.445Z,16.85
2023-05-19T20:28:31.122Z,16.83
2023-05-19T20:30:57.869Z,16.79
2023-05-19T20:33:24.625Z,16.75
2023-05-19T20:35:51.445Z,16.72
2023-05-19T20:38:19.955Z,16.68
2023-05-19T20:40:47.720Z,16.66
2023-05-19T20:43:14.610Z,16.64
2023-05-19T20:45:43.110Z,16.62
2023-05-19T20:48:11.392Z,16.61
2023-05-19T20:50:39.443Z,16.57
2023-05-19T20:53:07.401Z,16.55
2023-05-19T20:55:38.591Z,16.52
2023-05-19T20:58:05.528Z,16.48
2023-05-19T21:00:32.647Z,16.45
2023-05-19T21:03:00.229Z,16.42
2023-05-19T21:05:27.204Z,16.39
2023-05-19T21:07:54.041Z,16.33
2023-05-19T21:10:20.977Z,16.32
2023-05-19T21:12:50.601Z,16.30
2023-05-19T21:15:17.377Z,16.27
2023-05-19T21:17:44.260Z,16.25
2023-05-19T21:20:11.691Z,16.23
2023-05-19T21:22:38.416Z,16.20
2023-05-19T21:25:06.178Z,16.17
2023-05-19T21:27:35.482Z,16.08
2023-05-19T21:30:04.289Z,16.04
2023-05-19T21:32:31.097Z,15.99
2023-05-19T21:34:58.019Z,15.96
2023-05-19T21:37:24.868Z,15.91
2023-05-19T21:39:51.568Z,15.86
2023-05-19T21:42:18.404Z,15.83
2023-05-19T21:44:45.191Z,15.79
2023-05-19T21:47:13.243Z,15.73
2023-05-19T21:49:40.703Z,15.70
2023-05-19T21:52:08.007Z,15.66
2023-05-19T21:54:35.133Z,15.63
2023-05-19T21:57:02.375Z,15.59
2023-05-19T21:59:29.211Z,15.58
2023-05-19T22:01:55.901Z,15.53
2023-05-19T22:04:24.095Z,15.50
2023-05-19T22:06:51.073Z,15.48
2023-05-19T22:09:18.066Z,15.46
2023-05-19T22:11:44.924Z,15.45
2023-05-19T22:14:12.768Z,15.42
2023-05-19T22:16:39.694Z,15.40
2023-05-19T22:19:06.507Z,15.37
2023-05-19T22:21:34.592Z,15.33
2023-05-19T22:24:01.321Z,15.23
2023-05-19T22:26:28.169Z,15.16
2023-05-19T22:28:55.361Z,15.10
2023-05-19T22:31:22.466Z,15.07
2023-05-19T22:33:49.304Z,15.06
2023-05-19T22:36:16.677Z,15.01
2023-05-19T22:38:44.693Z,14.99
2023-05-19T22:41:11.482Z,14.96
2023-05-19T22:43:38.212Z,14.94
2023-05-19T22:46:05.428Z,14.92
2023-05-19T22:48:32.105Z,14.89
2023-05-19T22:50:58.952Z,14.89
2023-05-19T22:53:25.696Z,14.85
2023-05-19T22:55:53.850Z,14.85
2023-05-19T22:58:20.603Z,14.85
2023-05-19T23:00:47.287Z,14.82
2023-05-19T23:03:14.017Z,14.78
2023-05-19T23:05:40.957Z,14.77
2023-05-19T23:08:07.752Z,14.71
2023-05-19T23:10:34.533Z,14.68
2023-05-19T23:13:02.536Z,14.67
2023-05-19T23:15:29.290Z,14.64
2023-05-19T23:17:56.233Z,14.57
2023-05-19T23:20:22.988Z,14.54
2023-05-19T23:22:49.667Z,14.49
2023-05-19T23:25:16.908Z,14.47
2023-05-19T23:27:43.662Z,14.44
2023-05-19T23:30:12.210Z,14.44
2023-05-19T23:32:40.859Z,14.39
2023-05-19T23:35:12.457Z,14.38
2023-05-19T23:37:39.165Z,14.37
2023-05-19T23:40:07.522Z,14.37
2023-05-19T23:42:34.435Z,14.35
2023-05-19T23:45:01.129Z,14.32
2023-05-19T23:47:29.279Z,14.27
2023-05-19T23:49:56.257Z,14.26
2023-05-19T23:52:23.354Z,14.22
2023-05-19T23:54:50.428Z,14.19
2023-05-19T23:57:17.156Z,14.17
2023-05-19T23:59:44.281Z,14.12
